Time;durP1;ratioP1;P1;durP2;ratioP2;P2;SDS_P1;SDS_P2;PMS_P1;PMS_P2;Temp;Humidity;BMP_temperature;BMP_pressure;BME280_temperature;BME280_humidity;BME280_pressure;Samples;Min_cycle;Max_cycle;Signal;HPM_P1;HPM_P2
2023/09/05 00:01:57;;;;;;;10.50;7.53;;;;;;;;;;5092387;28;20457;-78
2023/09/05 00:04:24;;;;;;;10.55;7.53;;;;;;;;;;5090759;28;20046;-78
2023/09/05 00:06:50;;;;;;;9.75;7.38;;;;;;;;;;5092623;28;20126;-78
2023/09/05 00:09:19;;;;;;;12.60;7.70;;;;;;;;;;5091611;28;20052;-78
2023/09/05 00:11:46;;;;;;;10.35;7.25;;;;;;;;;;5091144;28;20146;-78
2023/09/05 00:14:12;;;;;;;9.25;7.10;;;;;;;;;;5091741;28;20054;-77
2023/09/05 00:16:38;;;;;;;10.18;7.30;;;;;;;;;;5092957;28;20036;-78
2023/09/05 00:19:05;;;;;;;8.60;7.20;;;;;;;;;;5092394;28;20110;-78
2023/09/05 00:21:31;;;;;;;9.40;6.78;;;;;;;;;;5092433;28;20042;-79
2023/09/05 00:24:33;;;;;;;9.23;7.00;;;;;;;;;;5092244;28;20044;-79
2023/09/05 00:27:00;;;;;;;10.55;7.57;;;;;;;;;;5069133;28;20497;-78
2023/09/05 00:29:27;;;;;;;9.52;7.43;;;;;;;;;;5077861;28;20044;-78
2023/09/05 00:31:53;;;;;;;8.68;6.90;;;;;;;;;;5090973;28;20081;-77
2023/09/05 00:34:19;;;;;;;8.95;7.25;;;;;;;;;;5091743;28;20445;-78
2023/09/05 00:36:48;;;;;;;9.77;7.20;;;;;;;;;;5091624;28;20415;-78
2023/09/05 00:39:16;;;;;;;9.85;7.88;;;;;;;;;;5091105;28;20193;-78
2023/09/05 00:41:42;;;;;;;8.95;7.22;;;;;;;;;;5090980;28;20036;-78
2023/09/05 00:44:08;;;;;;;8.63;7.05;;;;;;;;;;5091740;28;20036;-79
2023/09/05 00:46:35;;;;;;;8.02;7.00;;;;;;;;;;5090760;28;20150;-79
2023/09/05 00:49:04;;;;;;;10.23;7.32;;;;;;;;;;5073153;28;20047;-79
2023/09/05 00:51:34;;;;;;;9.40;7.65;;;;;;;;;;5092259;28;20047;-79
2023/09/05 00:54:01;;;;;;;8.77;7.57;;;;;;;;;;5092519;28;20116;-79
2023/09/05 00:56:27;;;;;;;8.85;7.40;;;;;;;;;;5094203;28;20044;-79
2023/09/05 00:58:53;;;;;;;10.55;7.10;;;;;;;;;;5093903;28;20048;-79
2023/09/05 01:01:19;;;;;;;10.30;7.60;;;;;;;;;;5093949;28;20130;-79
2023/09/05 01:03:45;;;;;;;10.82;7.63;;;;;;;;;;5093610;28;20054;-79
2023/09/05 01:06:22;;;;;;;10.52;8.00;;;;;;;;;;5094454;28;20044;-78
2023/09/05 01:08:53;;;;;;;11.00;8.00;;;;;;;;;;5094996;28;20106;-78
2023/09/05 01:11:19;;;;;;;10.27;7.85;;;;;;;;;;5078420;28;20052;-79
2023/09/05 01:13:45;;;;;;;11.15;7.80;;;;;;;;;;5094870;28;20048;-79
2023/09/05 01:16:11;;;;;;;10.48;8.25;;;;;;;;;;5094251;28;20166;-78
2023/09/05 01:18:40;;;;;;;10.27;8.52;;;;;;;;;;5095118;28;20036;-79
2023/09/05 01:21:06;;;;;;;9.10;7.75;;;;;;;;;;5094179;28;20139;-79
2023/09/05 01:23:36;;;;;;;9.05;8.05;;;;;;;;;;5095087;28;20094;-79
2023/09/05 01:26:02;;;;;;;12.00;7.97;;;;;;;;;;5095252;28;20036;-77
2023/09/05 01:28:28;;;;;;;10.20;8.32;;;;;;;;;;5075819;28;20116;-78
2023/09/05 01:30:54;;;;;;;9.38;7.65;;;;;;;;;;5081788;28;20044;-78
2023/09/05 01:33:20;;;;;;;9.32;8.10;;;;;;;;;;5093504;28;20044;-79
2023/09/05 01:35:46;;;;;;;10.25;8.27;;;;;;;;;;5094653;28;20044;-78
2023/09/05 01:38:13;;;;;;;10.23;8.77;;;;;;;;;;5094796;28;20059;-79
2023/09/05 01:40:39;;;;;;;10.88;8.07;;;;;;;;;;5094776;28;20484;-79
2023/09/05 01:43:05;;;;;;;11.20;8.35;;;;;;;;;;5093405;28;20528;-78
2023/09/05 01:45:31;;;;;;;9.60;7.88;;;;;;;;;;5092292;28;20127;-79
2023/09/05 01:47:57;;;;;;;9.15;8.25;;;;;;;;;;5094682;28;20132;-78
2023/09/05 01:50:23;;;;;;;9.50;8.50;;;;;;;;;;5094449;28;20086;-78
2023/09/05 01:52:49;;;;;;;10.00;8.23;;;;;;;;;;5093807;28;20044;-78
2023/09/05 01:55:15;;;;;;;9.68;8.00;;;;;;;;;;5090772;28;20056;-78
2023/09/05 01:57:41;;;;;;;10.50;8.38;;;;;;;;;;5076757;28;20130;-78
2023/09/05 02:00:08;;;;;;;10.23;8.38;;;;;;;;;;5092673;28;20543;-79
2023/09/05 02:02:34;;;;;;;13.00;9.10;;;;;;;;;;5092822;28;20044;-78
2023/09/05 02:05:00;;;;;;;10.68;8.43;;;;;;;;;;5091929;28;20388;-79
2023/09/05 02:07:26;;;;;;;10.68;8.98;;;;;;;;;;5092771;28;20526;-78
2023/09/05 02:09:52;;;;;;;11.48;8.70;;;;;;;;;;5092129;28;20048;-78
2023/09/05 02:12:18;;;;;;;9.60;8.52;;;;;;;;;;5093689;28;20036;-78
2023/09/05 02:14:47;;;;;;;11.73;9.65;;;;;;;;;;5093524;28;20047;-79
2023/09/05 02:17:16;;;;;;;11.05;9.05;;;;;;;;;;5094381;28;20397;-79
2023/09/05 02:19:42;;;;;;;9.90;8.85;;;;;;;;;;5092578;28;20404;-79
2023/09/05 02:22:08;;;;;;;10.65;8.98;;;;;;;;;;5094488;28;20376;-79
2023/09/05 02:24:34;;;;;;;11.27;9.20;;;;;;;;;;5092997;28;20091;-78
2023/09/05 02:27:01;;;;;;;10.88;9.77;;;;;;;;;;5092883;28;20388;-78
2023/09/05 02:29:28;;;;;;;10.00;9.00;;;;;;;;;;5090916;28;20055;-79
2023/09/05 02:31:54;;;;;;;10.32;9.13;;;;;;;;;;5093966;28;20079;-78
2023/09/05 02:34:20;;;;;;;13.10;9.38;;;;;;;;;;5091370;28;20040;-79
2023/09/05 02:36:46;;;;;;;10.82;9.32;;;;;;;;;;5091984;28;20114;-78
2023/09/05 02:39:12;;;;;;;13.63;9.65;;;;;;;;;;5091778;28;20428;-79
2023/09/05 02:41:39;;;;;;;11.07;9.55;;;;;;;;;;5093401;28;20109;-78
2023/09/05 02:44:05;;;;;;;12.02;9.75;;;;;;;;;;5091923;28;20050;-78
2023/09/05 02:46:31;;;;;;;12.07;9.52;;;;;;;;;;5092433;28;20059;-79
2023/09/05 02:48:57;;;;;;;12.32;9.43;;;;;;;;;;5091523;28;20040;-77
2023/09/05 02:51:23;;;;;;;11.73;10.00;;;;;;;;;;5092004;28;20090;-77
2023/09/05 02:53:49;;;;;;;11.63;9.38;;;;;;;;;;5090931;28;20047;-78
2023/09/05 02:56:17;;;;;;;10.35;8.80;;;;;;;;;;5091616;28;20185;-78
2023/09/05 02:58:43;;;;;;;11.23;10.02;;;;;;;;;;5092686;28;20549;-78
2023/09/05 03:01:12;;;;;;;13.10;9.25;;;;;;;;;;5074059;28;20127;-78
2023/09/05 03:03:38;;;;;;;12.05;9.43;;;;;;;;;;5090640;28;20106;-76
2023/09/05 03:06:11;;;;;;;10.90;9.30;;;;;;;;;;5078493;28;20082;-75
2023/09/05 03:08:38;;;;;;;11.75;9.73;;;;;;;;;;5077680;28;20059;-77
2023/09/05 03:11:04;;;;;;;11.93;9.95;;;;;;;;;;5091899;28;20067;-77
2023/09/05 03:13:30;;;;;;;11.77;9.98;;;;;;;;;;5093242;28;20040;-77
2023/09/05 03:15:56;;;;;;;12.18;10.20;;;;;;;;;;5092333;28;20075;-77
2023/09/05 03:18:25;;;;;;;12.30;9.90;;;;;;;;;;5091666;28;20044;-78
2023/09/05 03:20:51;;;;;;;11.45;10.05;;;;;;;;;;5092487;28;20514;-78
2023/09/05 03:23:19;;;;;;;13.63;10.40;;;;;;;;;;5092829;28;20098;-78
2023/09/05 03:25:45;;;;;;;12.75;9.70;;;;;;;;;;5091820;28;20040;-78
2023/09/05 03:28:15;;;;;;;11.55;10.27;;;;;;;;;;5076334;28;20056;-78
2023/09/05 03:30:41;;;;;;;11.55;9.73;;;;;;;;;;5086577;28;20067;-77
2023/09/05 03:33:08;;;;;;;11.02;9.45;;;;;;;;;;5081208;28;20054;-77
2023/09/05 03:35:34;;;;;;;11.35;10.00;;;;;;;;;;5084196;28;20396;-78
2023/09/05 03:38:01;;;;;;;13.13;10.20;;;;;;;;;;5092711;28;20040;-78
2023/09/05 03:40:27;;;;;;;13.70;10.43;;;;;;;;;;5091813;28;20044;-78
2023/09/05 03:42:53;;;;;;;12.30;9.88;;;;;;;;;;5089984;28;20544;-77
2023/09/05 03:45:19;;;;;;;11.98;10.77;;;;;;;;;;5091023;28;20047;-77
2023/09/05 03:47:45;;;;;;;12.45;10.40;;;;;;;;;;5091488;28;20206;-78
2023/09/05 03:50:13;;;;;;;12.77;9.95;;;;;;;;;;5090821;28;20040;-78
2023/09/05 03:52:39;;;;;;;12.85;10.32;;;;;;;;;;5088219;28;20048;-78
2023/09/05 03:55:06;;;;;;;14.00;11.02;;;;;;;;;;5091915;28;20051;-79
2023/09/05 03:57:32;;;;;;;12.23;10.15;;;;;;;;;;5074590;28;20055;-79
2023/09/05 03:59:58;;;;;;;11.85;10.30;;;;;;;;;;5092016;28;20040;-79
2023/09/05 04:02:24;;;;;;;14.40;11.02;;;;;;;;;;5091941;28;20043;-79
2023/09/05 04:04:55;;;;;;;13.73;11.35;;;;;;;;;;5092146;28;20040;-79
2023/09/05 04:07:22;;;;;;;12.35;11.00;;;;;;;;;;5091447;28;20353;-78
2023/09/05 04:09:48;;;;;;;13.93;11.00;;;;;;;;;;5091665;28;20080;-78
2023/09/05 04:12:15;;;;;;;12.07;10.82;;;;;;;;;;5092090;28;20055;-78
2023/09/05 04:14:41;;;;;;;15.52;11.15;;;;;;;;;;5092534;28;20054;-78
2023/09/05 04:17:07;;;;;;;17.30;12.55;;;;;;;;;;5091970;28;20036;-78
2023/09/05 04:19:33;;;;;;;15.65;11.93;;;;;;;;;;5092173;28;20040;-78
2023/09/05 04:21:59;;;;;;;15.68;11.88;;;;;;;;;;5091580;28;20102;-78
2023/09/05 04:24:25;;;;;;;16.20;12.57;;;;;;;;;;5073562;28;20048;-78
2023/09/05 04:26:53;;;;;;;17.05;13.48;;;;;;;;;;5085472;28;20071;-78
2023/09/05 04:29:19;;;;;;;15.50;13.23;;;;;;;;;;5071617;28;20056;-78
2023/09/05 04:31:45;;;;;;;16.35;13.00;;;;;;;;;;5090759;28;20054;-78
2023/09/05 04:34:11;;;;;;;15.55;13.65;;;;;;;;;;5093733;28;20529;-78
2023/09/05 04:36:37;;;;;;;14.77;12.70;;;;;;;;;;5094371;28;20047;-79
2023/09/05 04:39:04;;;;;;;15.20;13.27;;;;;;;;;;5094122;28;20052;-79
2023/09/05 04:41:30;;;;;;;14.65;11.77;;;;;;;;;;5095834;28;20040;-79
2023/09/05 04:43:56;;;;;;;14.05;12.00;;;;;;;;;;5094108;28;20076;-79
2023/09/05 04:46:22;;;;;;;15.60;12.38;;;;;;;;;;5094031;28;20084;-79
2023/09/05 04:48:49;;;;;;;15.45;12.93;;;;;;;;;;5094948;28;20048;-78
2023/09/05 04:51:15;;;;;;;19.52;12.43;;;;;;;;;;5093827;28;20278;-78
2023/09/05 04:53:41;;;;;;;14.82;11.98;;;;;;;;;;5093550;28;20069;-79
2023/09/05 04:56:07;;;;;;;13.07;11.57;;;;;;;;;;5095268;28;20044;-78
2023/09/05 04:58:33;;;;;;;14.73;12.13;;;;;;;;;;5093319;28;20420;-78
2023/09/05 05:01:04;;;;;;;16.33;11.98;;;;;;;;;;5093152;28;20407;-79
2023/09/05 05:03:31;;;;;;;16.80;12.18;;;;;;;;;;5090896;28;20048;-78
2023/09/05 05:05:57;;;;;;;17.05;11.68;;;;;;;;;;5093942;28;20040;-78
2023/09/05 05:08:23;;;;;;;13.77;12.32;;;;;;;;;;5093666;28;20074;-78
2023/09/05 05:10:49;;;;;;;18.05;12.63;;;;;;;;;;5094937;28;20040;-79
2023/09/05 05:13:15;;;;;;;18.45;11.73;;;;;;;;;;5076560;28;20052;-79
2023/09/05 05:15:43;;;;;;;13.60;11.75;;;;;;;;;;5095156;28;20337;-79
2023/09/05 05:18:09;;;;;;;15.90;11.77;;;;;;;;;;5093857;28;20048;-79
2023/09/05 05:20:37;;;;;;;12.60;11.05;;;;;;;;;;5094997;28;20051;-79
2023/09/05 05:23:04;;;;;;;14.18;10.90;;;;;;;;;;5094941;28;20040;-78
2023/09/05 05:25:30;;;;;;;18.33;11.70;;;;;;;;;;5094796;28;20059;-78
2023/09/05 05:27:56;;;;;;;14.18;12.02;;;;;;;;;;5080353;28;20044;-79
2023/09/05 05:30:22;;;;;;;15.68;11.75;;;;;;;;;;5094613;28;20040;-79
2023/09/05 05:32:48;;;;;;;14.88;11.32;;;;;;;;;;5093773;28;20044;-79
2023/09/05 05:35:15;;;;;;;12.18;10.85;;;;;;;;;;5087632;28;20036;-78
2023/09/05 05:37:41;;;;;;;16.35;12.07;;;;;;;;;;5095239;28;20417;-78
2023/09/05 05:40:07;;;;;;;15.18;11.90;;;;;;;;;;5094209;28;20079;-78
2023/09/05 05:42:33;;;;;;;13.73;11.43;;;;;;;;;;5093006;28;20052;-78
2023/09/05 05:44:59;;;;;;;12.75;11.38;;;;;;;;;;5094065;28;20385;-79
2023/09/05 05:47:26;;;;;;;14.90;11.68;;;;;;;;;;5093945;28;20048;-79
2023/09/05 05:49:52;;;;;;;13.45;11.68;;;;;;;;;;5093698;28;20048;-79
2023/09/05 05:52:18;;;;;;;14.85;12.15;;;;;;;;;;5093813;28;20192;-79
2023/09/05 05:54:44;;;;;;;14.90;11.60;;;;;;;;;;5094233;28;20143;-78
2023/09/05 05:57:10;;;;;;;15.75;12.07;;;;;;;;;;5076318;28;20524;-79
2023/09/05 05:59:36;;;;;;;15.32;11.90;;;;;;;;;;5092550;28;20048;-79
2023/09/05 06:02:03;;;;;;;13.73;11.80;;;;;;;;;;5094278;28;20445;-78
2023/09/05 06:04:29;;;;;;;14.68;11.07;;;;;;;;;;5094018;28;20060;-78
2023/09/05 06:06:55;;;;;;;14.43;11.13;;;;;;;;;;5092677;28;20086;-78
2023/09/05 06:09:21;;;;;;;16.10;12.07;;;;;;;;;;5090176;28;20056;-79
2023/09/05 06:11:47;;;;;;;14.68;11.35;;;;;;;;;;5092794;28;20044;-79
2023/09/05 06:14:14;;;;;;;15.95;11.68;;;;;;;;;;5075693;28;20400;-79
2023/09/05 06:16:40;;;;;;;15.60;10.93;;;;;;;;;;5092133;28;20044;-75
2023/09/05 06:19:08;;;;;;;14.48;10.85;;;;;;;;;;5091513;28;20052;-75
2023/09/05 06:21:34;;;;;;;12.02;10.73;;;;;;;;;;5092848;28;20048;-75
2023/09/05 06:24:00;;;;;;;18.75;11.60;;;;;;;;;;5093679;28;20047;-75
2023/09/05 06:26:27;;;;;;;17.45;11.77;;;;;;;;;;5092411;28;20404;-75
2023/09/05 06:28:53;;;;;;;13.70;11.15;;;;;;;;;;5070432;28;20389;-76
2023/09/05 06:31:20;;;;;;;15.50;10.88;;;;;;;;;;5090174;28;20048;-75
2023/09/05 06:33:46;;;;;;;18.58;10.90;;;;;;;;;;5080530;28;20044;-75
2023/09/05 06:36:12;;;;;;;14.68;11.02;;;;;;;;;;5093078;28;20040;-78
2023/09/05 06:38:39;;;;;;;16.88;11.02;;;;;;;;;;5093030;28;20378;-75
2023/09/05 06:41:09;;;;;;;16.85;10.88;;;;;;;;;;5097418;28;20059;-74
2023/09/05 06:43:35;;;;;;;16.63;11.18;;;;;;;;;;5093878;28;20616;-76
2023/09/05 06:46:05;;;;;;;15.65;10.77;;;;;;;;;;5092505;28;20048;-75
2023/09/05 06:48:31;;;;;;;17.70;11.02;;;;;;;;;;5096827;28;20040;-75
2023/09/05 06:50:58;;;;;;;16.10;10.93;;;;;;;;;;5091603;28;20322;-74
2023/09/05 06:53:25;;;;;;;17.23;10.98;;;;;;;;;;5091273;28;20044;-75
2023/09/05 06:55:51;;;;;;;16.90;10.82;;;;;;;;;;5090068;28;20115;-76
2023/09/05 06:58:18;;;;;;;17.52;10.95;;;;;;;;;;5074861;28;20051;-76
2023/09/05 07:00:45;;;;;;;16.98;10.40;;;;;;;;;;5092973;28;20127;-75
2023/09/05 07:03:12;;;;;;;15.27;10.25;;;;;;;;;;5091028;28;20055;-74
2023/09/05 07:05:41;;;;;;;12.95;10.18;;;;;;;;;;5092732;28;20047;-76
2023/09/05 07:08:07;;;;;;;12.25;9.68;;;;;;;;;;5091205;28;20056;-75
2023/09/05 07:10:33;;;;;;;13.15;10.00;;;;;;;;;;5091484;28;20056;-74
2023/09/05 07:12:59;;;;;;;15.85;10.25;;;;;;;;;;5091449;28;20043;-76
2023/09/05 07:15:25;;;;;;;14.93;10.10;;;;;;;;;;5092657;28;20051;-77
2023/09/05 07:17:52;;;;;;;13.05;9.77;;;;;;;;;;5091070;28;20040;-76
2023/09/05 07:20:18;;;;;;;15.38;9.13;;;;;;;;;;5092895;28;20397;-75
2023/09/05 07:22:44;;;;;;;21.08;9.77;;;;;;;;;;5091226;28;20178;-75
2023/09/05 07:25:10;;;;;;;15.80;9.40;;;;;;;;;;5092627;28;20047;-75
2023/09/05 07:27:36;;;;;;;15.90;9.70;;;;;;;;;;5092322;28;20044;-75
2023/09/05 07:30:02;;;;;;;13.73;9.18;;;;;;;;;;5091684;28;20122;-75
2023/09/05 07:32:28;;;;;;;12.60;9.40;;;;;;;;;;5090648;28;20048;-76
2023/09/05 07:34:55;;;;;;;15.65;10.05;;;;;;;;;;5091843;28;20043;-76
2023/09/05 07:37:21;;;;;;;14.60;9.18;;;;;;;;;;5092468;28;20083;-79
2023/09/05 07:39:50;;;;;;;13.82;9.57;;;;;;;;;;5092360;28;20469;-79
2023/09/05 07:42:16;;;;;;;17.10;9.00;;;;;;;;;;5092532;28;20131;-78
2023/09/05 07:44:42;;;;;;;12.60;9.10;;;;;;;;;;5092031;28;20043;-78
2023/09/05 07:47:08;;;;;;;17.60;9.00;;;;;;;;;;5091009;28;20400;-78
2023/09/05 07:49:37;;;;;;;13.32;8.88;;;;;;;;;;5091277;28;20040;-78
2023/09/05 07:52:04;;;;;;;15.48;8.93;;;;;;;;;;5091285;28;20131;-78
2023/09/05 07:54:30;;;;;;;13.70;9.02;;;;;;;;;;5092083;28;20036;-79
2023/09/05 07:56:56;;;;;;;12.55;8.70;;;;;;;;;;5091533;28;20396;-79
2023/09/05 07:59:23;;;;;;;11.90;8.07;;;;;;;;;;5092429;28;20446;-78
2023/09/05 08:01:49;;;;;;;10.30;8.00;;;;;;;;;;5092649;28;20144;-79
2023/09/05 08:04:15;;;;;;;9.10;7.68;;;;;;;;;;5092456;28;20047;-77
2023/09/05 08:06:42;;;;;;;10.98;7.90;;;;;;;;;;5099121;28;20052;-79
2023/09/05 08:09:08;;;;;;;11.10;7.38;;;;;;;;;;5102438;28;20127;-79
2023/09/05 08:11:34;;;;;;;10.95;7.20;;;;;;;;;;5094122;28;20055;-79
2023/09/05 08:14:00;;;;;;;9.45;6.80;;;;;;;;;;5092169;28;20054;-80
2023/09/05 08:16:27;;;;;;;12.45;7.68;;;;;;;;;;5093333;28;20123;-79
2023/09/05 08:18:53;;;;;;;9.48;6.22;;;;;;;;;;5094142;28;20130;-80
2023/09/05 08:21:20;;;;;;;9.60;6.57;;;;;;;;;;5095103;28;20040;-80
2023/09/05 08:23:49;;;;;;;8.50;5.90;;;;;;;;;;5094593;28;20055;-80
2023/09/05 08:26:16;;;;;;;8.30;5.68;;;;;;;;;;5092645;28;20503;-79
2023/09/05 08:28:44;;;;;;;11.25;6.60;;;;;;;;;;5093181;28;20138;-79
2023/09/05 08:31:10;;;;;;;10.63;6.55;;;;;;;;;;5093343;28;20043;-79
2023/09/05 08:33:37;;;;;;;11.15;6.78;;;;;;;;;;5092837;28;20467;-77
2023/09/05 08:36:08;;;;;;;11.75;6.22;;;;;;;;;;5093658;28;20036;-77
2023/09/05 08:38:37;;;;;;;10.77;6.60;;;;;;;;;;5074691;28;20119;-79
2023/09/05 08:41:10;;;;;;;10.52;5.55;;;;;;;;;;5087725;28;20433;-79
2023/09/05 08:43:36;;;;;;;11.50;6.32;;;;;;;;;;5093878;28;20088;-78
2023/09/05 08:46:03;;;;;;;14.18;6.40;;;;;;;;;;5087611;28;20072;-78
2023/09/05 08:48:32;;;;;;;9.32;5.97;;;;;;;;;;5097571;28;20044;-78
2023/09/05 08:51:05;;;;;;;10.98;6.03;;;;;;;;;;5094739;28;20083;-78
2023/09/05 08:53:36;;;;;;;12.57;6.57;;;;;;;;;;5095817;28;20105;-80
2023/09/05 08:56:03;;;;;;;10.73;6.32;;;;;;;;;;5095504;28;20044;-78
2023/09/05 08:58:30;;;;;;;12.07;6.30;;;;;;;;;;5095145;28;20052;-79
2023/09/05 09:00:56;;;;;;;9.85;5.10;;;;;;;;;;5095071;28;20047;-79
2023/09/05 09:03:22;;;;;;;10.32;4.53;;;;;;;;;;5095404;28;20051;-78
2023/09/05 09:05:49;;;;;;;9.38;4.95;;;;;;;;;;5094980;28;20047;-78
2023/09/05 09:08:18;;;;;;;7.70;4.78;;;;;;;;;;5105970;28;20060;-77
2023/09/05 09:11:03;;;;;;;10.38;5.30;;;;;;;;;;5099388;28;20048;-77
2023/09/05 09:13:29;;;;;;;9.77;4.30;;;;;;;;;;5091406;28;20052;-77
2023/09/05 09:15:56;;;;;;;8.07;4.47;;;;;;;;;;5091895;28;20115;-77
2023/09/05 09:18:22;;;;;;;7.57;4.22;;;;;;;;;;5093287;28;20055;-77
2023/09/05 09:20:51;;;;;;;14.68;4.65;;;;;;;;;;5094206;28;20124;-77
2023/09/05 09:23:28;;;;;;;9.60;4.07;;;;;;;;;;5092848;28;20404;-77
2023/09/05 09:25:55;;;;;;;7.00;4.20;;;;;;;;;;5076613;28;20373;-77
2023/09/05 09:28:28;;;;;;;7.65;4.40;;;;;;;;;;5092691;28;20473;-78
2023/09/05 09:30:58;;;;;;;8.90;4.30;;;;;;;;;;5094453;28;20052;-78
2023/09/05 09:33:25;;;;;;;13.73;3.97;;;;;;;;;;5094792;28;20127;-77
2023/09/05 09:36:02;;;;;;;25.90;4.70;;;;;;;;;;5094853;28;20072;-78
2023/09/05 09:38:28;;;;;;;19.80;4.60;;;;;;;;;;5092981;28;20131;-77
2023/09/05 09:40:55;;;;;;;8.88;3.85;;;;;;;;;;5094608;28;20526;-78
2023/09/05 09:43:21;;;;;;;6.75;3.85;;;;;;;;;;5094180;28;20119;-76
2023/09/05 09:45:47;;;;;;;7.32;3.40;;;;;;;;;;5094183;28;20438;-77
2023/09/05 09:48:16;;;;;;;6.28;3.60;;;;;;;;;;5093544;28;20349;-77
2023/09/05 09:50:46;;;;;;;7.82;3.55;;;;;;;;;;5093006;28;20039;-79
2023/09/05 09:53:13;;;;;;;7.30;3.50;;;;;;;;;;5091144;28;20086;-77
2023/09/05 09:55:43;;;;;;;17.63;4.57;;;;;;;;;;5091720;28;20128;-78
2023/09/05 09:58:11;;;;;;;21.08;4.30;;;;;;;;;;5090409;28;20043;-77
2023/09/05 10:00:38;;;;;;;8.70;2.88;;;;;;;;;;5094459;28;20116;-77
2023/09/05 10:03:08;;;;;;;7.28;2.97;;;;;;;;;;5091399;28;20095;-78
2023/09/05 10:05:34;;;;;;;8.70;2.70;;;;;;;;;;5096398;28;20401;-78
2023/09/05 10:08:00;;;;;;;8.15;3.72;;;;;;;;;;5103566;28;20519;-79
2023/09/05 10:10:27;;;;;;;9.35;2.58;;;;;;;;;;5093348;28;20081;-77
2023/09/05 10:12:56;;;;;;;7.03;2.60;;;;;;;;;;5095781;28;20044;-76
2023/09/05 10:15:22;;;;;;;9.48;3.13;;;;;;;;;;5099964;28;20052;-77
2023/09/05 10:17:49;;;;;;;7.28;3.00;;;;;;;;;;5110204;28;20450;-78
2023/09/05 10:20:19;;;;;;;7.63;2.65;;;;;;;;;;5091811;28;20048;-77
2023/09/05 10:22:46;;;;;;;6.13;2.95;;;;;;;;;;5090224;28;20113;-76
2023/09/05 10:25:13;;;;;;;7.05;2.60;;;;;;;;;;5092242;28;20040;-78
2023/09/05 10:27:40;;;;;;;8.60;3.10;;;;;;;;;;5082385;28;20036;-76
2023/09/05 10:30:10;;;;;;;7.32;2.50;;;;;;;;;;5085895;28;20044;-75
2023/09/05 10:32:36;;;;;;;8.93;3.00;;;;;;;;;;5085759;28;20051;-75
2023/09/05 10:35:02;;;;;;;4.68;2.60;;;;;;;;;;5098405;28;20040;-77
2023/09/05 10:37:39;;;;;;;5.88;2.40;;;;;;;;;;5088147;28;20055;-76
2023/09/05 10:40:10;;;;;;;5.03;2.70;;;;;;;;;;5090510;28;20055;-75
2023/09/05 10:42:41;;;;;;;3.33;2.22;;;;;;;;;;5090758;28;20063;-76
2023/09/05 10:45:16;;;;;;;7.57;2.28;;;;;;;;;;5088943;28;20120;-76
2023/09/05 10:47:43;;;;;;;4.35;2.20;;;;;;;;;;5088434;28;20048;-76
2023/09/05 10:50:09;;;;;;;5.93;2.10;;;;;;;;;;5089260;28;20460;-76
2023/09/05 10:52:36;;;;;;;5.13;2.63;;;;;;;;;;5088936;28;20476;-75
2023/09/05 10:55:21;;;;;;;4.78;2.25;;;;;;;;;;5088041;28;20048;-76
2023/09/05 10:57:50;;;;;;;6.72;2.40;;;;;;;;;;5084924;28;20048;-76
2023/09/05 11:00:20;;;;;;;6.50;2.58;;;;;;;;;;5088368;28;20044;-76
2023/09/05 11:02:47;;;;;;;5.18;2.15;;;;;;;;;;5089759;28;20044;-76
2023/09/05 11:05:18;;;;;;;5.07;2.20;;;;;;;;;;5089762;28;20509;-76
2023/09/05 11:07:48;;;;;;;4.07;2.15;;;;;;;;;;5089453;28;20055;-74
2023/09/05 11:10:31;;;;;;;5.90;2.35;;;;;;;;;;5070903;28;20059;-75
2023/09/05 11:13:08;;;;;;;5.57;2.60;;;;;;;;;;5075268;28;20050;-77
2023/09/05 11:15:43;;;;;;;7.72;2.50;;;;;;;;;;5082977;28;20043;-78
2023/09/05 11:18:12;;;;;;;5.75;2.63;;;;;;;;;;5091718;28;20056;-80
2023/09/05 11:20:39;;;;;;;5.93;2.50;;;;;;;;;;5092167;28;20055;-80
2023/09/05 11:23:18;;;;;;;5.10;2.17;;;;;;;;;;5092845;28;20046;-79
2023/09/05 11:25:54;;;;;;;5.85;2.17;;;;;;;;;;5092250;28;20075;-79
2023/09/05 11:28:24;;;;;;;6.57;2.45;;;;;;;;;;5075858;28;20133;-79
2023/09/05 11:30:57;;;;;;;4.13;1.98;;;;;;;;;;5088983;28;20043;-79
2023/09/05 11:33:26;;;;;;;5.60;2.27;;;;;;;;;;5074134;28;20044;-79
2023/09/05 11:35:52;;;;;;;7.10;2.05;;;;;;;;;;5092433;28;20484;-79
2023/09/05 11:38:23;;;;;;;6.38;2.53;;;;;;;;;;5087897;28;20098;-79
2023/09/05 11:40:52;;;;;;;5.93;2.00;;;;;;;;;;5072432;28;20044;-79
2023/09/05 11:43:18;;;;;;;6.38;2.25;;;;;;;;;;5071096;28;20044;-80
2023/09/05 11:45:46;;;;;;;4.50;2.30;;;;;;;;;;5071791;28;20040;-80
2023/09/05 11:48:16;;;;;;;8.52;2.35;;;;;;;;;;5072364;28;20084;-80
2023/09/05 11:50:43;;;;;;;6.15;1.73;;;;;;;;;;5071130;28;20105;-80
2023/09/05 11:53:11;;;;;;;3.53;1.98;;;;;;;;;;5072015;28;20431;-80
2023/09/05 11:55:37;;;;;;;4.15;1.80;;;;;;;;;;5070802;28;20068;-81
2023/09/05 11:58:05;;;;;;;4.38;1.70;;;;;;;;;;5072476;28;20044;-80
2023/09/05 12:00:35;;;;;;;4.43;1.90;;;;;;;;;;5072502;28;20135;-80
2023/09/05 12:03:01;;;;;;;5.03;1.70;;;;;;;;;;5072303;28;20060;-80
2023/09/05 12:05:28;;;;;;;4.57;1.85;;;;;;;;;;5070428;28;20071;-80
2023/09/05 12:07:54;;;;;;;3.03;1.60;;;;;;;;;;5072354;28;20354;-80
2023/09/05 12:10:21;;;;;;;3.45;1.80;;;;;;;;;;5069745;28;20053;-79
2023/09/05 12:12:58;;;;;;;3.60;1.80;;;;;;;;;;5070246;28;20048;-79
2023/09/05 12:15:37;;;;;;;5.25;1.50;;;;;;;;;;5072372;28;20174;-79
2023/09/05 12:18:04;;;;;;;2.80;1.50;;;;;;;;;;5072016;28;20044;-79
2023/09/05 12:20:33;;;;;;;5.07;1.80;;;;;;;;;;5070563;28;20049;-80
2023/09/05 12:23:00;;;;;;;5.22;2.25;;;;;;;;;;5072230;28;20404;-80
2023/09/05 12:25:28;;;;;;;4.47;1.67;;;;;;;;;;5053904;28;20052;-79
2023/09/05 12:27:58;;;;;;;3.17;1.70;;;;;;;;;;5084939;28;20101;-79
2023/09/05 12:30:31;;;;;;;3.95;1.50;;;;;;;;;;5090826;28;20127;-80
2023/09/05 12:32:58;;;;;;;;;;;;;;;;;;5092170;28;20079;-78
2023/09/05 12:35:25;;;;;;;3.65;1.52;;;;;;;;;;5107584;28;19920;-80
2023/09/05 12:37:52;;;;;;;10.30;1.63;;;;;;;;;;5091849;28;20045;-80
2023/09/05 12:40:19;;;;;;;4.80;1.70;;;;;;;;;;5092080;28;20048;-79
2023/09/05 12:42:45;;;;;;;3.80;1.70;;;;;;;;;;5090896;28;20074;-79
2023/09/05 12:45:12;;;;;;;7.25;1.75;;;;;;;;;;5089515;28;20153;-80
2023/09/05 12:47:38;;;;;;;3.28;1.75;;;;;;;;;;5091665;28;20051;-80
2023/09/05 12:50:05;;;;;;;4.88;1.63;;;;;;;;;;5093351;28;20044;-79
2023/09/05 12:52:32;;;;;;;13.23;2.30;;;;;;;;;;5093299;28;20372;-80
2023/09/05 12:54:58;;;;;;;3.97;1.90;;;;;;;;;;5094411;28;20048;-80
2023/09/05 12:57:25;;;;;;;3.47;1.92;;;;;;;;;;5095604;28;20044;-80
2023/09/05 12:59:52;;;;;;;4.78;1.90;;;;;;;;;;5095720;28;20389;-80
2023/09/05 13:02:18;;;;;;;7.00;1.92;;;;;;;;;;5094298;28;20059;-79
2023/09/05 13:04:44;;;;;;;8.70;2.00;;;;;;;;;;5091000;28;20040;-79
2023/09/05 13:07:10;;;;;;;4.10;2.00;;;;;;;;;;5093171;28;20365;-79
2023/09/05 13:09:36;;;;;;;6.35;2.03;;;;;;;;;;5095080;28;20063;-80
2023/09/05 13:12:03;;;;;;;6.32;2.00;;;;;;;;;;5094131;28;20503;-79
2023/09/05 13:14:29;;;;;;;5.57;2.00;;;;;;;;;;5095292;28;20047;-79
2023/09/05 13:16:55;;;;;;;6.15;1.88;;;;;;;;;;5093910;28;20055;-78
2023/09/05 13:19:22;;;;;;;6.97;2.17;;;;;;;;;;5094941;28;20051;-78
2023/09/05 13:21:48;;;;;;;6.55;2.28;;;;;;;;;;5076809;28;20036;-78
2023/09/05 13:24:14;;;;;;;4.78;1.90;;;;;;;;;;5095059;28;20047;-80
2023/09/05 13:26:41;;;;;;;4.05;1.95;;;;;;;;;;5092371;28;20044;-80
2023/09/05 13:29:07;;;;;;;4.60;2.00;;;;;;;;;;5085423;28;20059;-79
2023/09/05 13:31:32;;;;;;;5.35;2.05;;;;;;;;;;5095093;28;20459;-80
2023/09/05 13:33:59;;;;;;;3.17;1.77;;;;;;;;;;5079993;28;20041;-80
2023/09/05 13:36:25;;;;;;;3.70;2.00;;;;;;;;;;5091964;28;20113;-80
2023/09/05 13:38:51;;;;;;;6.47;2.25;;;;;;;;;;5094314;28;20048;-80
2023/09/05 13:41:18;;;;;;;6.07;2.10;;;;;;;;;;5095150;28;20059;-79
2023/09/05 13:43:44;;;;;;;4.82;1.92;;;;;;;;;;5094795;28;20044;-80
2023/09/05 13:46:10;;;;;;;4.18;2.10;;;;;;;;;;5094312;28;20047;-80
2023/09/05 13:48:36;;;;;;;5.43;1.90;;;;;;;;;;5093518;28;20037;-79
2023/09/05 13:51:02;;;;;;;2.40;1.80;;;;;;;;;;5093410;28;20044;-80
2023/09/05 13:53:28;;;;;;;5.22;2.20;;;;;;;;;;5092549;28;20055;-78
2023/09/05 13:55:55;;;;;;;4.30;2.20;;;;;;;;;;5100801;28;20071;-77
2023/09/05 13:58:21;;;;;;;3.50;1.90;;;;;;;;;;5104488;28;20109;-77
2023/09/05 14:00:47;;;;;;;4.72;2.10;;;;;;;;;;5094442;28;20056;-79
2023/09/05 14:03:15;;;;;;;5.93;2.13;;;;;;;;;;5095900;28;20044;-77
2023/09/05 14:05:41;;;;;;;3.40;1.80;;;;;;;;;;5094226;28;20089;-78
2023/09/05 14:08:07;;;;;;;3.40;2.20;;;;;;;;;;5092171;28;20060;-78
2023/09/05 14:10:33;;;;;;;5.28;2.25;;;;;;;;;;5094107;28;20048;-79
2023/09/05 14:12:59;;;;;;;3.53;2.00;;;;;;;;;;5093682;28;20205;-79
2023/09/05 14:15:25;;;;;;;5.93;2.20;;;;;;;;;;5093991;28;20056;-79
2023/09/05 14:17:51;;;;;;;3.67;1.95;;;;;;;;;;5092817;28;20114;-79
2023/09/05 14:20:17;;;;;;;6.13;2.00;;;;;;;;;;5092252;28;20432;-79
2023/09/05 14:22:43;;;;;;;7.28;2.20;;;;;;;;;;5070504;22;20464;-79
2023/09/05 14:25:09;;;;;;;5.63;2.30;;;;;;;;;;5067902;28;20044;-78
2023/09/05 14:27:35;;;;;;;5.65;2.28;;;;;;;;;;5065297;28;20036;-80
2023/09/05 14:30:05;;;;;;;5.03;2.20;;;;;;;;;;5068281;28;20051;-79
2023/09/05 14:32:31;;;;;;;4.03;2.35;;;;;;;;;;5067826;28;20055;-78
2023/09/05 14:34:57;;;;;;;3.75;2.10;;;;;;;;;;5066103;28;20040;-78